Weather observations for the past three days for
Concord, Buchanan Field
Imperial (Metric)
Date Time (pdt) Wind (mph) Vis. (mi.) Weather Sky Cond. Temperature (ºF) Relative Humidity Wind Chill (°F) Heat Index (°F) Pressure Precipitation (in)
Air Dwpt 6 hour altimeter (in) sea level (mb) 1 hr 3 hr 6 hr
Max. Min.
07 20:53 SW 7 10.00 Fair CLR 61 52 72% 30.02 1015.0
07 19:53 W 9 10.00 Fair CLR 64.9 53.1 66% 30 1014.3
07 18:53 W 12 10.00 Fair CLR 69.1 53.1 57% 29.99 1014.2
07 17:53 W 13 10.00 Fair CLR 73 55 53% 29.99 1014.1
07 16:53 W 12 10.00 Fair CLR 75.9 55.9 78.1 64.9 50% 78 29.98 1014.0
07 15:53 NW 13 10.00 Fair CLR 78.1 55.9 47% 79 29.99 1014.0
07 14:53 NW 13 10.00 Fair CLR 75.9 55 48% 78 30.02 1015.1
07 13:53 NW 13 10.00 Fair CLR 72 55 55% 30.04 1015.8
07 12:53 NW 10 G 20 10.00 Fair CLR 70 55 59% 30.06 1016.5
07 11:53 NW 9 10.00 Fair CLR 66.9 54 63% 30.08 1017.2
07 10:53 N 9 10.00 Fair CLR 64 53.1 64.9 55 68% 30.09 1017.6
07 09:53 Calm 10.00 Fair CLR 61 51.1 70% 30.1 1017.8
07 08:53 SW 5 10.00 Mostly Cloudy BKN013 57.9 51.1 78% 30.1 1017.9
07 07:53 SW 6 10.00 Overcast OVC011 55.9 50 81% 30.1 1018.0
07 06:53 SW 8 10.00 Overcast OVC011 55 50 83% 30.09 1017.6
07 05:53 S 8 10.00 Overcast OVC011 55 50 83% 30.08 1017.2
07 04:53 SW 8 10.00 Overcast OVC011 55 51.1 59 55 87% 30.08 1017.3
07 03:53 SW 5 10.00 Overcast OVC011 55 51.1 87% 30.08 1017.1
07 02:53 SW 9 10.00 Fair CLR 55 52 90% 30.08 1017.1
07 01:53 SW 9 10.00 Fair CLR 55.9 51.1 84% 30.08 1017.3
07 00:53 S 9 10.00 Fair CLR 55.9 52 87% 30.08 1017.3
06 23:53 SW 12 10.00 Fair CLR 57 52 83% 30.08 1017.2
06 22:53 Vrbl 5 10.00 Fair CLR 59 53.1 75 57 81% 30.09 1017.4
06 21:53 NW 7 10.00 Fair CLR 59 53.1 81% 30.08 1017.3
06 20:53 NW 7 10.00 Fair CLR 61 53.1 75% 30.07 1016.9
06 19:53 W 7 10.00 Fair CLR 64 54 70% 30.06 1016.6
06 18:53 NW 13 10.00 Fair CLR 71.1 55 57% 30.04 1015.8
06 17:53 W 12 10.00 Fair CLR 73 55.9 55% 30.04 1015.7
06 16:53 W 7 G 18 10.00 Fair CLR 75 55 75 66 50% 78 30.04 1015.9
06 15:53 Calm 10.00 Fair CLR 73.9 54 50% 30.05 1016.3
06 14:53 NW 9 10.00 Fair CLR 73.9 54 50% 30.08 1017.3
06 13:53 NE 8 10.00 Fair CLR 73 52 48% 30.09 1017.6
06 12:53 Vrbl 3 10.00 Partly Cloudy SCT037 71.1 53.1 53% 30.11 1018.4
06 11:53 NW 6 10.00 Mostly Cloudy BKN036 69.1 54 59% 30.13 1018.8
06 10:53 Vrbl 3 10.00 A Few Clouds FEW026 66 53.1 66 55.9 63% 30.13 1019.0
06 09:53 Calm 10.00 Partly Cloudy SCT024 64 52 65% 30.14 1019.1
06 08:53 Vrbl 3 10.00 Mostly Cloudy BKN030 60.1 51.1 72% 30.15 1019.4
06 07:53 S 7 10.00 Partly Cloudy SCT030 57.9 51.1 78% 30.14 1019.3
06 06:53 S 6 10.00 Mostly Cloudy BKN050 55.9 50 81% 30.13 1018.7
06 05:53 S 5 10.00 Overcast OVC050 55.9 50 81% 30.12 1018.5
06 04:53 S 3 10.00 Overcast OVC048 55.9 50 57 54 81% 30.11 1018.2
06 03:53 S 3 10.00 Overcast OVC047 55.9 50 81% 30.1 1017.8
06 02:53 SW 5 10.00 Overcast OVC045 55.9 48.9 77% 30.09 1017.7
06 01:53 S 3 10.00 Overcast OVC046 55 50 83% 30.1 1017.7
06 00:53 S 6 10.00 Mostly Cloudy BKN047 55 50 83% 30.09 1017.6
05 23:53 S 5 10.00 Mostly Cloudy BKN047 55.9 50 81% 30.08 1017.1
05 22:53 S 7 10.00 Mostly Cloudy BKN047 55.9 50 64 55.9 81% 30.07 1016.8
05 21:53 SW 7 10.00 Overcast OVC046 57 51.1 81% 30.05 1016.3
05 20:53 W 10 10.00 Overcast BKN034 OVC045 57.9 51.1 78% 30.03 1015.6
05 19:53 W 9 10.00 Overcast OVC032 59 51.1 75% 30.01 1014.7
05 18:53 S 12 10.00 Overcast OVC032 62.1 50 65% 29.99 1014.2
05 17:53 S 10 10.00 Overcast BKN027 OVC048 63 51.1 65% 29.98 1013.9
05 16:53 SW 10 10.00 Overcast BKN027 OVC033 63 52 64 53.1 68% 29.98 1013.7
05 15:53 S 7 10.00 Overcast OVC027 63 51.1 65% 29.98 1013.8
05 14:53 S 12 10.00 Overcast OVC028 63 52 68% 29.99 1014.0
05 13:53 SW 5 10.00 Overcast OVC032 63 51.1 65% 29.99 1014.1
05 12:53 W 6 10.00 Overcast OVC026 62.1 51.1 67% 30 1014.5
05 03:53 S 9 10.00 Overcast FEW023 OVC050 53.1 51.1 93% 29.97 1013.3
05 02:53 S 8 10.00 Overcast BKN020 OVC060 53.1 51.1 93% 29.96 1013.0
05 01:53 S 8 10.00 Light Rain OVC018 53.1 51.1 93% 29.97 1013.6 0.03
05 00:53 S 7 8.00 Rain OVC070 53.1 50 89% 29.98 1013.9 0.03
04 23:53 SW 5 8.00 Light Rain SCT016 OVC075 53.1 50 89% 30 1014.3
04 22:53 SW 8 8.00 Light Rain BKN080 OVC100 53.1 50 62.1 53.1 89% 29.98 1013.7 0.01 0.04
04 21:53 W 7 10.00 Light Rain SCT017 SCT060 OVC090 54 51.1 90% 29.99 1014.1 0.03
Date Time (pdt) Wind (mph) Vis. (mi.) Weather Sky Cond. Air Dwpt Max. Min. Relative Humidity Wind Chill (°F) Heat Index (°F) altimeter (in) sea level (mb) 1 hr 3 hr 6 hr
6 hour
Temperature (ºF) Pressure Precipitation (in)